Terminal Aerodrome Forecast
Issued by NWS Mt. Holly, NJ

Home | Current Version | Previous Version | Text Only | Print | Product List | Glossary On
Versions: 1 2 3 4 5 6 7 8 9 10 11 12 13 14 15 16 17 18 19 20 21 22 23 24 25 26 27 28 29 30 31
000
FTUS41 KPHI 130500 RRA
TAFACY
TAF
KACY 130542Z 1306/1406 19008KT P6SM SCT010
      TEMPO 1306/1310 BKN010
     FM131300 19012KT P6SM SCT045 BKN100
     FM131600 19014G22KT P6SM SCT045
     FM132300 18012KT P6SM BKN045 PROB30 1400/1402 3SM TSRA BR
      OVC020CB
     FM140200 19010KT P6SM -SHRA OVC035
     FM140400 20008KT P6SM SCT035 BKN100=

USA.gov is the U.S. government's official web portal to all federal, state and local government web resources and services.